sensor_id;sensor_type;location;lat;lon;timestamp;P1;durP1;ratioP1;P2;durP2;ratioP2
73733;SDS011;62039;50.000;9.064;2023-03-15T00:01:11;3.37;;;1.90;;
73733;SDS011;62039;50.000;9.064;2023-03-15T00:03:40;2.30;;;1.80;;
73733;SDS011;62039;50.000;9.064;2023-03-15T00:06:07;4.07;;;1.83;;
73733;SDS011;62039;50.000;9.064;2023-03-15T00:08:34;2.97;;;1.70;;
73733;SDS011;62039;50.000;9.064;2023-03-15T00:11:02;2.10;;;1.50;;
73733;SDS011;62039;50.000;9.064;2023-03-15T00:13:29;1.93;;;1.50;;
73733;SDS011;62039;50.000;9.064;2023-03-15T00:15:57;2.17;;;1.70;;
73733;SDS011;62039;50.000;9.064;2023-03-15T00:18:24;3.23;;;1.53;;
73733;SDS011;62039;50.000;9.064;2023-03-15T00:20:51;2.37;;;1.50;;
73733;SDS011;62039;50.000;9.064;2023-03-15T00:23:18;2.43;;;1.50;;
73733;SDS011;62039;50.000;9.064;2023-03-15T00:25:44;3.57;;;1.43;;
73733;SDS011;62039;50.000;9.064;2023-03-15T00:28:13;3.13;;;1.53;;
73733;SDS011;62039;50.000;9.064;2023-03-15T00:30:40;5.17;;;1.60;;
73733;SDS011;62039;50.000;9.064;2023-03-15T00:33:07;2.20;;;1.50;;
73733;SDS011;62039;50.000;9.064;2023-03-15T00:35:37;2.40;;;1.60;;
73733;SDS011;62039;50.000;9.064;2023-03-15T00:38:04;3.00;;;1.67;;
73733;SDS011;62039;50.000;9.064;2023-03-15T00:40:31;3.23;;;1.70;;
73733;SDS011;62039;50.000;9.064;2023-03-15T00:42:58;2.17;;;1.33;;
73733;SDS011;62039;50.000;9.064;2023-03-15T00:45:26;3.67;;;1.60;;
73733;SDS011;62039;50.000;9.064;2023-03-15T00:47:53;2.80;;;1.53;;
73733;SDS011;62039;50.000;9.064;2023-03-15T00:50:20;3.70;;;1.57;;
73733;SDS011;62039;50.000;9.064;2023-03-15T00:52:48;3.63;;;2.10;;
73733;SDS011;62039;50.000;9.064;2023-03-15T00:55:15;2.80;;;1.80;;
73733;SDS011;62039;50.000;9.064;2023-03-15T00:57:43;3.97;;;1.60;;
73733;SDS011;62039;50.000;9.064;2023-03-15T01:00:12;3.60;;;1.70;;
73733;SDS011;62039;50.000;9.064;2023-03-15T01:02:41;3.30;;;1.90;;
73733;SDS011;62039;50.000;9.064;2023-03-15T01:05:08;5.07;;;1.60;;
73733;SDS011;62039;50.000;9.064;2023-03-15T01:07:35;3.30;;;1.53;;
73733;SDS011;62039;50.000;9.064;2023-03-15T01:10:02;3.43;;;1.50;;
73733;SDS011;62039;50.000;9.064;2023-03-15T01:12:31;2.67;;;1.73;;
73733;SDS011;62039;50.000;9.064;2023-03-15T01:14:58;4.73;;;1.87;;
73733;SDS011;62039;50.000;9.064;2023-03-15T01:17:25;2.90;;;1.70;;
73733;SDS011;62039;50.000;9.064;2023-03-15T01:19:53;5.03;;;1.87;;
73733;SDS011;62039;50.000;9.064;2023-03-15T01:22:20;4.00;;;2.20;;
73733;SDS011;62039;50.000;9.064;2023-03-15T01:24:47;3.33;;;1.50;;
73733;SDS011;62039;50.000;9.064;2023-03-15T01:27:13;3.87;;;1.60;;
73733;SDS011;62039;50.000;9.064;2023-03-15T01:29:40;4.03;;;1.53;;
73733;SDS011;62039;50.000;9.064;2023-03-15T01:32:07;3.57;;;1.73;;
73733;SDS011;62039;50.000;9.064;2023-03-15T01:34:34;6.07;;;2.10;;
73733;SDS011;62039;50.000;9.064;2023-03-15T01:37:02;5.27;;;1.80;;
73733;SDS011;62039;50.000;9.064;2023-03-15T01:39:29;3.57;;;1.50;;
73733;SDS011;62039;50.000;9.064;2023-03-15T01:41:55;3.67;;;1.50;;
73733;SDS011;62039;50.000;9.064;2023-03-15T01:44:22;3.63;;;1.80;;
73733;SDS011;62039;50.000;9.064;2023-03-15T01:46:50;3.00;;;1.40;;
73733;SDS011;62039;50.000;9.064;2023-03-15T01:49:18;3.80;;;1.70;;
73733;SDS011;62039;50.000;9.064;2023-03-15T01:51:49;2.83;;;1.13;;
73733;SDS011;62039;50.000;9.064;2023-03-15T01:54:21;4.07;;;1.50;;
73733;SDS011;62039;50.000;9.064;2023-03-15T01:56:53;4.00;;;1.40;;
73733;SDS011;62039;50.000;9.064;2023-03-15T01:59:25;2.40;;;1.30;;
73733;SDS011;62039;50.000;9.064;2023-03-15T02:01:54;3.63;;;1.50;;
73733;SDS011;62039;50.000;9.064;2023-03-15T02:04:21;3.97;;;1.50;;
73733;SDS011;62039;50.000;9.064;2023-03-15T02:06:53;4.73;;;1.70;;
73733;SDS011;62039;50.000;9.064;2023-03-15T02:09:25;4.27;;;1.13;;
73733;SDS011;62039;50.000;9.064;2023-03-15T02:11:57;4.00;;;1.50;;
73733;SDS011;62039;50.000;9.064;2023-03-15T02:14:24;3.20;;;1.30;;
73733;SDS011;62039;50.000;9.064;2023-03-15T02:16:50;3.67;;;1.40;;
73733;SDS011;62039;50.000;9.064;2023-03-15T02:19:21;3.13;;;1.60;;
73733;SDS011;62039;50.000;9.064;2023-03-15T02:21:57;3.53;;;1.37;;
73733;SDS011;62039;50.000;9.064;2023-03-15T02:24:31;3.80;;;1.63;;
73733;SDS011;62039;50.000;9.064;2023-03-15T02:27:05;3.87;;;1.40;;
73733;SDS011;62039;50.000;9.064;2023-03-15T02:29:33;2.60;;;1.57;;
73733;SDS011;62039;50.000;9.064;2023-03-15T02:32:00;6.93;;;1.87;;
73733;SDS011;62039;50.000;9.064;2023-03-15T02:34:27;1.60;;;1.00;;
73733;SDS011;62039;50.000;9.064;2023-03-15T02:36:53;4.67;;;1.60;;
73733;SDS011;62039;50.000;9.064;2023-03-15T02:39:20;3.47;;;1.20;;
73733;SDS011;62039;50.000;9.064;2023-03-15T02:41:48;3.70;;;1.30;;
73733;SDS011;62039;50.000;9.064;2023-03-15T02:44:18;3.00;;;1.50;;
73733;SDS011;62039;50.000;9.064;2023-03-15T02:46:50;3.77;;;1.40;;
73733;SDS011;62039;50.000;9.064;2023-03-15T02:49:18;3.60;;;1.37;;
73733;SDS011;62039;50.000;9.064;2023-03-15T02:51:48;3.20;;;1.20;;
73733;SDS011;62039;50.000;9.064;2023-03-15T02:54:15;4.37;;;1.60;;
73733;SDS011;62039;50.000;9.064;2023-03-15T02:56:41;2.57;;;1.07;;
73733;SDS011;62039;50.000;9.064;2023-03-15T02:59:08;3.57;;;1.27;;
73733;SDS011;62039;50.000;9.064;2023-03-15T03:01:34;1.97;;;1.20;;
73733;SDS011;62039;50.000;9.064;2023-03-15T03:04:02;1.87;;;1.33;;
73733;SDS011;62039;50.000;9.064;2023-03-15T03:06:29;2.70;;;1.47;;
73733;SDS011;62039;50.000;9.064;2023-03-15T03:08:56;3.67;;;1.47;;
73733;SDS011;62039;50.000;9.064;2023-03-15T03:11:22;3.97;;;1.23;;
73733;SDS011;62039;50.000;9.064;2023-03-15T03:13:49;3.50;;;1.37;;
73733;SDS011;62039;50.000;9.064;2023-03-15T03:16:15;3.37;;;1.60;;
73733;SDS011;62039;50.000;9.064;2023-03-15T03:18:42;3.27;;;1.30;;
73733;SDS011;62039;50.000;9.064;2023-03-15T03:21:10;2.37;;;1.17;;
73733;SDS011;62039;50.000;9.064;2023-03-15T03:23:36;5.73;;;1.70;;
73733;SDS011;62039;50.000;9.064;2023-03-15T03:26:10;3.17;;;1.37;;
73733;SDS011;62039;50.000;9.064;2023-03-15T03:28:38;2.03;;;1.00;;
73733;SDS011;62039;50.000;9.064;2023-03-15T03:31:05;4.53;;;1.40;;
73733;SDS011;62039;50.000;9.064;2023-03-15T03:33:31;4.13;;;1.40;;
73733;SDS011;62039;50.000;9.064;2023-03-15T03:35:59;3.93;;;1.30;;
73733;SDS011;62039;50.000;9.064;2023-03-15T03:38:27;2.90;;;1.40;;
73733;SDS011;62039;50.000;9.064;2023-03-15T03:40:54;2.90;;;1.40;;
73733;SDS011;62039;50.000;9.064;2023-03-15T03:43:20;2.33;;;1.33;;
73733;SDS011;62039;50.000;9.064;2023-03-15T03:45:47;3.70;;;1.53;;
73733;SDS011;62039;50.000;9.064;2023-03-15T03:48:13;2.33;;;1.50;;
73733;SDS011;62039;50.000;9.064;2023-03-15T03:50:40;5.97;;;1.83;;
73733;SDS011;62039;50.000;9.064;2023-03-15T03:53:07;3.67;;;1.47;;
73733;SDS011;62039;50.000;9.064;2023-03-15T03:55:34;3.27;;;1.63;;
73733;SDS011;62039;50.000;9.064;2023-03-15T03:58:03;4.17;;;1.63;;
73733;SDS011;62039;50.000;9.064;2023-03-15T04:00:29;3.17;;;1.70;;
73733;SDS011;62039;50.000;9.064;2023-03-15T04:02:56;2.17;;;1.33;;
73733;SDS011;62039;50.000;9.064;2023-03-15T04:05:22;2.23;;;1.20;;
73733;SDS011;62039;50.000;9.064;2023-03-15T04:07:49;2.83;;;1.40;;
73733;SDS011;62039;50.000;9.064;2023-03-15T04:10:15;3.37;;;1.30;;
73733;SDS011;62039;50.000;9.064;2023-03-15T04:12:43;2.50;;;1.20;;
73733;SDS011;62039;50.000;9.064;2023-03-15T04:15:10;4.03;;;1.40;;
73733;SDS011;62039;50.000;9.064;2023-03-15T04:17:37;2.47;;;1.70;;
73733;SDS011;62039;50.000;9.064;2023-03-15T04:20:04;2.37;;;1.10;;
73733;SDS011;62039;50.000;9.064;2023-03-15T04:22:32;2.67;;;1.10;;
73733;SDS011;62039;50.000;9.064;2023-03-15T04:24:58;1.93;;;1.07;;
73733;SDS011;62039;50.000;9.064;2023-03-15T04:27:25;6.17;;;1.73;;
73733;SDS011;62039;50.000;9.064;2023-03-15T04:29:53;3.57;;;1.73;;
73733;SDS011;62039;50.000;9.064;2023-03-15T04:32:19;3.23;;;1.60;;
73733;SDS011;62039;50.000;9.064;2023-03-15T04:34:46;2.37;;;1.80;;
73733;SDS011;62039;50.000;9.064;2023-03-15T04:37:12;2.90;;;1.70;;
73733;SDS011;62039;50.000;9.064;2023-03-15T04:39:39;3.70;;;1.70;;
73733;SDS011;62039;50.000;9.064;2023-03-15T04:42:06;4.20;;;1.80;;
73733;SDS011;62039;50.000;9.064;2023-03-15T04:44:32;3.13;;;1.93;;
73733;SDS011;62039;50.000;9.064;2023-03-15T04:47:00;3.33;;;1.63;;
73733;SDS011;62039;50.000;9.064;2023-03-15T04:49:27;4.00;;;1.60;;
73733;SDS011;62039;50.000;9.064;2023-03-15T04:51:54;3.23;;;1.57;;
73733;SDS011;62039;50.000;9.064;2023-03-15T04:54:20;2.30;;;1.70;;
73733;SDS011;62039;50.000;9.064;2023-03-15T04:56:47;3.27;;;1.80;;
73733;SDS011;62039;50.000;9.064;2023-03-15T04:59:13;2.47;;;1.67;;
73733;SDS011;62039;50.000;9.064;2023-03-15T05:01:40;3.00;;;1.60;;
73733;SDS011;62039;50.000;9.064;2023-03-15T05:04:07;3.10;;;1.40;;
73733;SDS011;62039;50.000;9.064;2023-03-15T05:06:34;3.37;;;1.70;;
73733;SDS011;62039;50.000;9.064;2023-03-15T05:09:00;2.67;;;1.70;;
73733;SDS011;62039;50.000;9.064;2023-03-15T05:11:27;2.93;;;1.43;;
73733;SDS011;62039;50.000;9.064;2023-03-15T05:13:54;3.57;;;1.50;;
73733;SDS011;62039;50.000;9.064;2023-03-15T05:16:20;3.47;;;1.80;;
73733;SDS011;62039;50.000;9.064;2023-03-15T05:18:47;4.27;;;1.80;;
73733;SDS011;62039;50.000;9.064;2023-03-15T05:21:15;2.00;;;1.53;;
73733;SDS011;62039;50.000;9.064;2023-03-15T05:23:41;3.90;;;1.40;;
73733;SDS011;62039;50.000;9.064;2023-03-15T05:26:08;2.53;;;1.30;;
73733;SDS011;62039;50.000;9.064;2023-03-15T05:28:34;4.07;;;1.47;;
73733;SDS011;62039;50.000;9.064;2023-03-15T05:31:01;4.70;;;1.53;;
73733;SDS011;62039;50.000;9.064;2023-03-15T05:33:27;5.57;;;1.53;;
73733;SDS011;62039;50.000;9.064;2023-03-15T05:35:54;3.53;;;1.47;;
73733;SDS011;62039;50.000;9.064;2023-03-15T05:38:22;3.67;;;1.30;;
73733;SDS011;62039;50.000;9.064;2023-03-15T05:40:49;4.57;;;1.30;;
73733;SDS011;62039;50.000;9.064;2023-03-15T05:43:15;5.17;;;1.53;;
73733;SDS011;62039;50.000;9.064;2023-03-15T05:45:42;2.13;;;1.27;;
73733;SDS011;62039;50.000;9.064;2023-03-15T05:48:08;2.33;;;1.10;;
73733;SDS011;62039;50.000;9.064;2023-03-15T05:50:35;3.20;;;1.70;;
73733;SDS011;62039;50.000;9.064;2023-03-15T05:53:01;4.87;;;2.03;;
73733;SDS011;62039;50.000;9.064;2023-03-15T05:55:29;3.77;;;1.57;;
73733;SDS011;62039;50.000;9.064;2023-03-15T05:57:56;4.07;;;1.80;;
73733;SDS011;62039;50.000;9.064;2023-03-15T06:00:22;5.13;;;2.20;;
73733;SDS011;62039;50.000;9.064;2023-03-15T06:02:49;6.50;;;2.40;;
73733;SDS011;62039;50.000;9.064;2023-03-15T06:05:16;4.57;;;2.50;;
73733;SDS011;62039;50.000;9.064;2023-03-15T06:07:42;4.67;;;2.20;;
73733;SDS011;62039;50.000;9.064;2023-03-15T06:10:10;4.90;;;2.27;;
73733;SDS011;62039;50.000;9.064;2023-03-15T06:12:37;5.37;;;2.10;;
73733;SDS011;62039;50.000;9.064;2023-03-15T06:15:04;4.57;;;2.07;;
73733;SDS011;62039;50.000;9.064;2023-03-15T06:17:32;3.43;;;2.07;;
73733;SDS011;62039;50.000;9.064;2023-03-15T06:19:58;3.23;;;1.87;;
73733;SDS011;62039;50.000;9.064;2023-03-15T06:22:25;5.43;;;2.17;;
73733;SDS011;62039;50.000;9.064;2023-03-15T06:24:51;3.27;;;1.70;;
73733;SDS011;62039;50.000;9.064;2023-03-15T06:27:18;5.07;;;2.20;;
73733;SDS011;62039;50.000;9.064;2023-03-15T06:29:46;5.13;;;3.30;;
73733;SDS011;62039;50.000;9.064;2023-03-15T06:32:12;5.53;;;2.97;;
73733;SDS011;62039;50.000;9.064;2023-03-15T06:34:39;5.03;;;2.60;;
73733;SDS011;62039;50.000;9.064;2023-03-15T06:37:06;5.10;;;2.30;;
73733;SDS011;62039;50.000;9.064;2023-03-15T06:39:32;4.83;;;2.33;;
73733;SDS011;62039;50.000;9.064;2023-03-15T06:41:59;3.67;;;2.20;;
73733;SDS011;62039;50.000;9.064;2023-03-15T06:44:25;3.27;;;1.70;;
73733;SDS011;62039;50.000;9.064;2023-03-15T06:46:53;4.87;;;1.90;;
73733;SDS011;62039;50.000;9.064;2023-03-15T06:49:20;3.77;;;2.20;;
73733;SDS011;62039;50.000;9.064;2023-03-15T06:51:46;4.13;;;2.23;;
73733;SDS011;62039;50.000;9.064;2023-03-15T06:54:13;3.97;;;2.00;;
73733;SDS011;62039;50.000;9.064;2023-03-15T06:56:39;3.67;;;2.27;;
73733;SDS011;62039;50.000;9.064;2023-03-15T06:59:06;9.07;;;2.50;;
73733;SDS011;62039;50.000;9.064;2023-03-15T07:01:32;4.50;;;2.50;;
73733;SDS011;62039;50.000;9.064;2023-03-15T07:04:00;5.40;;;2.60;;
73733;SDS011;62039;50.000;9.064;2023-03-15T07:06:27;4.27;;;2.60;;
73733;SDS011;62039;50.000;9.064;2023-03-15T07:08:54;5.87;;;2.60;;
73733;SDS011;62039;50.000;9.064;2023-03-15T07:11:20;5.73;;;2.70;;
73733;SDS011;62039;50.000;9.064;2023-03-15T07:13:47;6.37;;;3.30;;
73733;SDS011;62039;50.000;9.064;2023-03-15T07:16:13;5.57;;;2.67;;
73733;SDS011;62039;50.000;9.064;2023-03-15T07:18:40;3.37;;;2.13;;
73733;SDS011;62039;50.000;9.064;2023-03-15T07:21:08;4.17;;;2.10;;
73733;SDS011;62039;50.000;9.064;2023-03-15T07:23:34;3.13;;;2.00;;
73733;SDS011;62039;50.000;9.064;2023-03-15T07:26:01;6.53;;;2.17;;
73733;SDS011;62039;50.000;9.064;2023-03-15T07:28:28;6.47;;;2.47;;
73733;SDS011;62039;50.000;9.064;2023-03-15T07:30:55;5.10;;;2.73;;
73733;SDS011;62039;50.000;9.064;2023-03-15T07:33:23;6.70;;;3.27;;
73733;SDS011;62039;50.000;9.064;2023-03-15T07:35:51;4.70;;;2.83;;
73733;SDS011;62039;50.000;9.064;2023-03-15T07:38:20;4.23;;;2.30;;
73733;SDS011;62039;50.000;9.064;2023-03-15T07:40:47;3.87;;;2.10;;
73733;SDS011;62039;50.000;9.064;2023-03-15T07:43:13;7.83;;;4.27;;
73733;SDS011;62039;50.000;9.064;2023-03-15T07:45:40;8.37;;;5.40;;
73733;SDS011;62039;50.000;9.064;2023-03-15T07:48:07;6.83;;;4.73;;
73733;SDS011;62039;50.000;9.064;2023-03-15T07:50:34;5.77;;;3.70;;
73733;SDS011;62039;50.000;9.064;2023-03-15T07:53:01;5.10;;;3.30;;
73733;SDS011;62039;50.000;9.064;2023-03-15T07:55:29;6.63;;;3.40;;
73733;SDS011;62039;50.000;9.064;2023-03-15T07:57:56;4.77;;;3.00;;
73733;SDS011;62039;50.000;9.064;2023-03-15T08:00:23;6.57;;;3.40;;
73733;SDS011;62039;50.000;9.064;2023-03-15T08:02:50;9.07;;;5.17;;
73733;SDS011;62039;50.000;9.064;2023-03-15T08:05:16;7.13;;;5.33;;
73733;SDS011;62039;50.000;9.064;2023-03-15T08:07:43;6.63;;;3.50;;
73733;SDS011;62039;50.000;9.064;2023-03-15T08:10:10;8.17;;;4.13;;
73733;SDS011;62039;50.000;9.064;2023-03-15T08:12:39;6.17;;;3.10;;
73733;SDS011;62039;50.000;9.064;2023-03-15T08:15:06;6.43;;;3.40;;
73733;SDS011;62039;50.000;9.064;2023-03-15T08:17:33;6.77;;;3.87;;
73733;SDS011;62039;50.000;9.064;2023-03-15T08:20:00;7.17;;;3.70;;
73733;SDS011;62039;50.000;9.064;2023-03-15T08:22:26;4.97;;;3.33;;
73733;SDS011;62039;50.000;9.064;2023-03-15T08:24:53;9.43;;;3.97;;
73733;SDS011;62039;50.000;9.064;2023-03-15T08:27:19;8.83;;;4.80;;
73733;SDS011;62039;50.000;9.064;2023-03-15T08:29:47;5.60;;;3.80;;
73733;SDS011;62039;50.000;9.064;2023-03-15T08:32:15;7.07;;;4.30;;
73733;SDS011;62039;50.000;9.064;2023-03-15T08:34:42;4.90;;;4.00;;
73733;SDS011;62039;50.000;9.064;2023-03-15T08:37:08;9.30;;;6.23;;
73733;SDS011;62039;50.000;9.064;2023-03-15T08:39:35;4.10;;;3.37;;
73733;SDS011;62039;50.000;9.064;2023-03-15T08:42:02;6.13;;;4.33;;
73733;SDS011;62039;50.000;9.064;2023-03-15T08:44:28;5.80;;;3.80;;
73733;SDS011;62039;50.000;9.064;2023-03-15T08:46:56;6.57;;;3.83;;
73733;SDS011;62039;50.000;9.064;2023-03-15T08:49:23;5.27;;;3.63;;
73733;SDS011;62039;50.000;9.064;2023-03-15T08:51:50;5.43;;;3.73;;
73733;SDS011;62039;50.000;9.064;2023-03-15T08:54:16;5.93;;;3.37;;
73733;SDS011;62039;50.000;9.064;2023-03-15T08:56:43;4.40;;;3.23;;
73733;SDS011;62039;50.000;9.064;2023-03-15T08:59:09;5.50;;;3.30;;
73733;SDS011;62039;50.000;9.064;2023-03-15T09:01:39;5.13;;;3.93;;
73733;SDS011;62039;50.000;9.064;2023-03-15T09:04:07;4.47;;;3.10;;
73733;SDS011;62039;50.000;9.064;2023-03-15T09:06:34;5.00;;;3.40;;
73733;SDS011;62039;50.000;9.064;2023-03-15T09:09:00;5.13;;;3.23;;
73733;SDS011;62039;50.000;9.064;2023-03-15T09:11:27;6.57;;;3.47;;
73733;SDS011;62039;50.000;9.064;2023-03-15T09:13:53;4.73;;;2.73;;
73733;SDS011;62039;50.000;9.064;2023-03-15T09:16:20;6.27;;;3.33;;
73733;SDS011;62039;50.000;9.064;2023-03-15T09:18:46;5.10;;;3.00;;
73733;SDS011;62039;50.000;9.064;2023-03-15T09:21:14;4.20;;;2.63;;
73733;SDS011;62039;50.000;9.064;2023-03-15T09:23:41;4.37;;;2.70;;
73733;SDS011;62039;50.000;9.064;2023-03-15T09:26:07;5.87;;;3.00;;
73733;SDS011;62039;50.000;9.064;2023-03-15T09:28:34;5.27;;;2.97;;
73733;SDS011;62039;50.000;9.064;2023-03-15T09:31:03;4.63;;;2.80;;
73733;SDS011;62039;50.000;9.064;2023-03-15T09:33:30;3.57;;;2.73;;
73733;SDS011;62039;50.000;9.064;2023-03-15T09:35:57;3.63;;;2.80;;
73733;SDS011;62039;50.000;9.064;2023-03-15T09:38:25;3.93;;;2.63;;
73733;SDS011;62039;50.000;9.064;2023-03-15T09:40:54;6.80;;;3.33;;
73733;SDS011;62039;50.000;9.064;2023-03-15T09:46:20;4.20;;;2.73;;
73733;SDS011;62039;50.000;9.064;2023-03-15T09:48:52;5.83;;;3.00;;
73733;SDS011;62039;50.000;9.064;2023-03-15T09:51:29;3.63;;;3.30;;
73733;SDS011;62039;50.000;9.064;2023-03-15T09:54:03;4.63;;;3.00;;
73733;SDS011;62039;50.000;9.064;2023-03-15T09:56:34;4.83;;;2.97;;
73733;SDS011;62039;50.000;9.064;2023-03-15T09:59:03;4.93;;;2.63;;
73733;SDS011;62039;50.000;9.064;2023-03-15T10:01:33;4.13;;;2.80;;
73733;SDS011;62039;50.000;9.064;2023-03-15T10:04:02;4.40;;;2.90;;
73733;SDS011;62039;50.000;9.064;2023-03-15T10:06:35;3.53;;;2.90;;
73733;SDS011;62039;50.000;9.064;2023-03-15T10:09:09;4.97;;;2.77;;
73733;SDS011;62039;50.000;9.064;2023-03-15T10:11:39;3.27;;;2.63;;
73733;SDS011;62039;50.000;9.064;2023-03-15T10:14:15;4.10;;;2.97;;
73733;SDS011;62039;50.000;9.064;2023-03-15T10:16:49;8.17;;;2.83;;
73733;SDS011;62039;50.000;9.064;2023-03-15T10:19:21;4.23;;;2.80;;
73733;SDS011;62039;50.000;9.064;2023-03-15T10:21:53;2.70;;;2.43;;
73733;SDS011;62039;50.000;9.064;2023-03-15T10:24:26;4.40;;;2.90;;
73733;SDS011;62039;50.000;9.064;2023-03-15T10:26:58;4.70;;;2.30;;
73733;SDS011;62039;50.000;9.064;2023-03-15T10:29:48;5.03;;;2.40;;
73733;SDS011;62039;50.000;9.064;2023-03-15T10:32:18;4.10;;;2.60;;
73733;SDS011;62039;50.000;9.064;2023-03-15T10:34:50;4.70;;;2.60;;
73733;SDS011;62039;50.000;9.064;2023-03-15T10:37:18;4.23;;;3.00;;
73733;SDS011;62039;50.000;9.064;2023-03-15T10:39:46;3.37;;;2.50;;
73733;SDS011;62039;50.000;9.064;2023-03-15T10:45:11;4.93;;;2.83;;
73733;SDS011;62039;50.000;9.064;2023-03-15T10:47:43;4.23;;;3.40;;
73733;SDS011;62039;50.000;9.064;2023-03-15T10:50:24;2.93;;;2.50;;
73733;SDS011;62039;50.000;9.064;2023-03-15T10:52:53;5.33;;;2.93;;
73733;SDS011;62039;50.000;9.064;2023-03-15T10:55:27;4.33;;;3.13;;
73733;SDS011;62039;50.000;9.064;2023-03-15T10:57:56;4.97;;;3.30;;
73733;SDS011;62039;50.000;9.064;2023-03-15T11:00:28;4.47;;;3.23;;
73733;SDS011;62039;50.000;9.064;2023-03-15T11:03:03;6.20;;;3.50;;
73733;SDS011;62039;50.000;9.064;2023-03-15T11:05:31;5.90;;;3.40;;
73733;SDS011;62039;50.000;9.064;2023-03-15T11:08:03;3.77;;;2.93;;
73733;SDS011;62039;50.000;9.064;2023-03-15T11:10:39;4.17;;;2.60;;
73733;SDS011;62039;50.000;9.064;2023-03-15T11:13:09;3.03;;;2.53;;
73733;SDS011;62039;50.000;9.064;2023-03-15T11:15:38;4.53;;;2.83;;
73733;SDS011;62039;50.000;9.064;2023-03-15T11:18:05;5.33;;;2.83;;
73733;SDS011;62039;50.000;9.064;2023-03-15T11:20:41;4.77;;;3.03;;
73733;SDS011;62039;50.000;9.064;2023-03-15T11:23:12;5.40;;;3.70;;
73733;SDS011;62039;50.000;9.064;2023-03-15T11:25:42;3.63;;;2.87;;
73733;SDS011;62039;50.000;9.064;2023-03-15T11:28:10;6.20;;;3.40;;
73733;SDS011;62039;50.000;9.064;2023-03-15T11:30:43;3.33;;;2.90;;
73733;SDS011;62039;50.000;9.064;2023-03-15T11:33:17;4.80;;;2.97;;
73733;SDS011;62039;50.000;9.064;2023-03-15T11:35:55;3.27;;;2.70;;
73733;SDS011;62039;50.000;9.064;2023-03-15T11:38:25;3.10;;;2.67;;
73733;SDS011;62039;50.000;9.064;2023-03-15T11:40:56;2.67;;;2.40;;
73733;SDS011;62039;50.000;9.064;2023-03-15T11:43:26;4.70;;;2.90;;
73733;SDS011;62039;50.000;9.064;2023-03-15T11:45:55;3.40;;;2.60;;
73733;SDS011;62039;50.000;9.064;2023-03-15T11:48:25;3.33;;;2.30;;
73733;SDS011;62039;50.000;9.064;2023-03-15T11:50:56;6.27;;;2.70;;
73733;SDS011;62039;50.000;9.064;2023-03-15T11:53:26;2.53;;;2.20;;
73733;SDS011;62039;50.000;9.064;2023-03-15T11:56:02;3.77;;;2.70;;
73733;SDS011;62039;50.000;9.064;2023-03-15T11:58:57;3.83;;;2.33;;
73733;SDS011;62039;50.000;9.064;2023-03-15T12:01:29;2.50;;;2.23;;
73733;SDS011;62039;50.000;9.064;2023-03-15T12:06:54;4.10;;;2.20;;
73733;SDS011;62039;50.000;9.064;2023-03-15T12:18:13;3.03;;;2.10;;
73733;SDS011;62039;50.000;9.064;2023-03-15T12:20:44;1.97;;;1.63;;
73733;SDS011;62039;50.000;9.064;2023-03-15T12:23:21;2.00;;;1.60;;
73733;SDS011;62039;50.000;9.064;2023-03-15T12:25:56;1.40;;;1.30;;
73733;SDS011;62039;50.000;9.064;2023-03-15T12:28:26;2.27;;;1.40;;
73733;SDS011;62039;50.000;9.064;2023-03-15T12:30:56;1.33;;;1.10;;
73733;SDS011;62039;50.000;9.064;2023-03-15T12:33:25;1.63;;;1.20;;
73733;SDS011;62039;50.000;9.064;2023-03-15T12:35:57;1.60;;;1.10;;
73733;SDS011;62039;50.000;9.064;2023-03-15T12:38:27;1.37;;;1.27;;
73733;SDS011;62039;50.000;9.064;2023-03-15T12:40:58;1.37;;;1.10;;
73733;SDS011;62039;50.000;9.064;2023-03-15T12:43:36;1.83;;;1.37;;
73733;SDS011;62039;50.000;9.064;2023-03-15T12:46:04;1.47;;;1.10;;
73733;SDS011;62039;50.000;9.064;2023-03-15T12:48:31;1.53;;;1.40;;
73733;SDS011;62039;50.000;9.064;2023-03-15T12:51:02;2.20;;;2.00;;
73733;SDS011;62039;50.000;9.064;2023-03-15T12:53:35;1.67;;;1.57;;
73733;SDS011;62039;50.000;9.064;2023-03-15T12:56:18;2.33;;;1.70;;
73733;SDS011;62039;50.000;9.064;2023-03-15T12:58:54;1.50;;;1.40;;
73733;SDS011;62039;50.000;9.064;2023-03-15T13:01:25;2.07;;;1.60;;
73733;SDS011;62039;50.000;9.064;2023-03-15T13:03:52;1.87;;;1.57;;
73733;SDS011;62039;50.000;9.064;2023-03-15T13:06:21;1.53;;;1.43;;
73733;SDS011;62039;50.000;9.064;2023-03-15T13:09:01;2.50;;;1.50;;
73733;SDS011;62039;50.000;9.064;2023-03-15T13:11:31;2.27;;;1.67;;
73733;SDS011;62039;50.000;9.064;2023-03-15T13:14:20;2.10;;;1.90;;
73733;SDS011;62039;50.000;9.064;2023-03-15T13:16:57;1.93;;;1.70;;
73733;SDS011;62039;50.000;9.064;2023-03-15T13:19:33;1.60;;;1.50;;
73733;SDS011;62039;50.000;9.064;2023-03-15T13:22:08;1.30;;;1.13;;
73733;SDS011;62039;50.000;9.064;2023-03-15T13:24:43;1.37;;;1.27;;
73733;SDS011;62039;50.000;9.064;2023-03-15T13:27:22;1.50;;;1.40;;
73733;SDS011;62039;50.000;9.064;2023-03-15T13:29:59;2.17;;;1.50;;
73733;SDS011;62039;50.000;9.064;2023-03-15T13:32:27;1.60;;;1.40;;
73733;SDS011;62039;50.000;9.064;2023-03-15T13:34:55;1.80;;;1.53;;
73733;SDS011;62039;50.000;9.064;2023-03-15T13:37:22;1.53;;;1.37;;
73733;SDS011;62039;50.000;9.064;2023-03-15T13:39:54;1.90;;;1.60;;
73733;SDS011;62039;50.000;9.064;2023-03-15T13:42:22;3.23;;;1.60;;
73733;SDS011;62039;50.000;9.064;2023-03-15T13:47:38;2.30;;;2.00;;
73733;SDS011;62039;50.000;9.064;2023-03-15T13:50:06;2.10;;;1.83;;
73733;SDS011;62039;50.000;9.064;2023-03-15T13:52:39;1.70;;;1.60;;
73733;SDS011;62039;50.000;9.064;2023-03-15T13:55:06;1.80;;;1.70;;
73733;SDS011;62039;50.000;9.064;2023-03-15T13:57:33;2.00;;;1.40;;
73733;SDS011;62039;50.000;9.064;2023-03-15T14:00:03;1.60;;;1.50;;
73733;SDS011;62039;50.000;9.064;2023-03-15T14:02:35;2.63;;;1.40;;
73733;SDS011;62039;50.000;9.064;2023-03-15T14:05:04;2.60;;;1.57;;
73733;SDS011;62039;50.000;9.064;2023-03-15T14:07:33;1.33;;;1.23;;
73733;SDS011;62039;50.000;9.064;2023-03-15T14:10:08;1.43;;;1.33;;
73733;SDS011;62039;50.000;9.064;2023-03-15T14:12:45;1.60;;;1.50;;
73733;SDS011;62039;50.000;9.064;2023-03-15T14:15:13;1.43;;;1.33;;
73733;SDS011;62039;50.000;9.064;2023-03-15T14:17:52;1.47;;;1.37;;
73733;SDS011;62039;50.000;9.064;2023-03-15T14:20:23;1.60;;;1.37;;
73733;SDS011;62039;50.000;9.064;2023-03-15T14:22:55;1.30;;;1.20;;
73733;SDS011;62039;50.000;9.064;2023-03-15T14:25:23;1.43;;;1.10;;
73733;SDS011;62039;50.000;9.064;2023-03-15T14:27:50;1.10;;;1.00;;
73733;SDS011;62039;50.000;9.064;2023-03-15T14:30:17;1.70;;;1.00;;
73733;SDS011;62039;50.000;9.064;2023-03-15T14:32:51;1.40;;;1.30;;
73733;SDS011;62039;50.000;9.064;2023-03-15T14:35:19;1.03;;;0.93;;
73733;SDS011;62039;50.000;9.064;2023-03-15T14:37:58;1.40;;;1.20;;
73733;SDS011;62039;50.000;9.064;2023-03-15T14:40:27;1.57;;;1.30;;
73733;SDS011;62039;50.000;9.064;2023-03-15T14:42:55;1.57;;;1.20;;
73733;SDS011;62039;50.000;9.064;2023-03-15T14:45:22;1.90;;;1.20;;
73733;SDS011;62039;50.000;9.064;2023-03-15T14:47:49;1.73;;;1.00;;
73733;SDS011;62039;50.000;9.064;2023-03-15T14:50:23;1.00;;;0.90;;
73733;SDS011;62039;50.000;9.064;2023-03-15T14:52:52;1.30;;;1.03;;
73733;SDS011;62039;50.000;9.064;2023-03-15T14:55:19;1.43;;;1.03;;
73733;SDS011;62039;50.000;9.064;2023-03-15T14:57:48;1.93;;;1.10;;
73733;SDS011;62039;50.000;9.064;2023-03-15T15:00:15;1.10;;;1.00;;
73733;SDS011;62039;50.000;9.064;2023-03-15T15:02:43;1.60;;;1.23;;
73733;SDS011;62039;50.000;9.064;2023-03-15T15:05:17;1.47;;;1.37;;
73733;SDS011;62039;50.000;9.064;2023-03-15T15:07:46;1.10;;;1.00;;
73733;SDS011;62039;50.000;9.064;2023-03-15T15:10:13;0.93;;;0.83;;
73733;SDS011;62039;50.000;9.064;2023-03-15T15:12:40;1.23;;;1.10;;
73733;SDS011;62039;50.000;9.064;2023-03-15T15:15:11;0.93;;;0.90;;
73733;SDS011;62039;50.000;9.064;2023-03-15T15:17:40;1.00;;;0.87;;